sensor_id;sensor_type;location;lat;lon;timestamp;P1;durP1;ratioP1;P2;durP2;ratioP2
33190;SDS011;19554;42.652;23.364;2023-01-28T00:01:44;10.73;;;8.05;;
33190;SDS011;19554;42.652;23.364;2023-01-28T00:04:10;10.82;;;7.97;;
33190;SDS011;19554;42.652;23.364;2023-01-28T00:06:35;13.30;;;9.05;;
33190;SDS011;19554;42.652;23.364;2023-01-28T00:09:01;9.93;;;7.82;;
33190;SDS011;19554;42.652;23.364;2023-01-28T00:11:27;10.52;;;7.88;;
33190;SDS011;19554;42.652;23.364;2023-01-28T00:13:53;14.20;;;9.88;;
33190;SDS011;19554;42.652;23.364;2023-01-28T00:16:19;12.00;;;8.82;;
33190;SDS011;19554;42.652;23.364;2023-01-28T00:18:46;11.35;;;8.50;;
33190;SDS011;19554;42.652;23.364;2023-01-28T00:21:12;11.73;;;8.50;;
33190;SDS011;19554;42.652;23.364;2023-01-28T00:23:40;12.20;;;8.93;;
33190;SDS011;19554;42.652;23.364;2023-01-28T00:26:10;11.23;;;8.20;;
33190;SDS011;19554;42.652;23.364;2023-01-28T00:28:37;11.40;;;8.10;;
33190;SDS011;19554;42.652;23.364;2023-01-28T00:31:11;10.95;;;7.75;;
33190;SDS011;19554;42.652;23.364;2023-01-28T00:33:41;9.52;;;7.60;;
33190;SDS011;19554;42.652;23.364;2023-01-28T00:36:08;12.00;;;8.38;;
33190;SDS011;19554;42.652;23.364;2023-01-28T00:38:33;10.50;;;8.48;;
33190;SDS011;19554;42.652;23.364;2023-01-28T00:41:10;11.43;;;8.93;;
33190;SDS011;19554;42.652;23.364;2023-01-28T00:43:40;11.27;;;8.48;;
33190;SDS011;19554;42.652;23.364;2023-01-28T00:46:07;10.60;;;8.38;;
33190;SDS011;19554;42.652;23.364;2023-01-28T00:48:34;11.10;;;8.70;;
33190;SDS011;19554;42.652;23.364;2023-01-28T00:51:00;11.45;;;8.43;;
33190;SDS011;19554;42.652;23.364;2023-01-28T00:53:26;13.40;;;8.82;;
33190;SDS011;19554;42.652;23.364;2023-01-28T00:55:51;11.20;;;8.25;;
33190;SDS011;19554;42.652;23.364;2023-01-28T00:58:17;12.13;;;8.93;;
33190;SDS011;19554;42.652;23.364;2023-01-28T01:00:43;10.23;;;7.80;;
33190;SDS011;19554;42.652;23.364;2023-01-28T01:03:09;10.80;;;8.07;;
33190;SDS011;19554;42.652;23.364;2023-01-28T01:05:34;10.43;;;8.27;;
33190;SDS011;19554;42.652;23.364;2023-01-28T01:08:00;12.13;;;8.23;;
33190;SDS011;19554;42.652;23.364;2023-01-28T01:10:25;11.15;;;8.02;;
33190;SDS011;19554;42.652;23.364;2023-01-28T01:12:50;9.45;;;7.50;;
33190;SDS011;19554;42.652;23.364;2023-01-28T01:15:16;12.45;;;8.02;;
33190;SDS011;19554;42.652;23.364;2023-01-28T01:17:44;12.75;;;8.27;;
33190;SDS011;19554;42.652;23.364;2023-01-28T01:20:15;10.98;;;8.48;;
33190;SDS011;19554;42.652;23.364;2023-01-28T01:22:41;11.23;;;8.00;;
33190;SDS011;19554;42.652;23.364;2023-01-28T01:25:06;9.70;;;7.57;;
33190;SDS011;19554;42.652;23.364;2023-01-28T01:27:32;11.52;;;8.23;;
33190;SDS011;19554;42.652;23.364;2023-01-28T01:29:58;10.40;;;7.93;;
33190;SDS011;19554;42.652;23.364;2023-01-28T01:32:24;11.27;;;8.05;;
33190;SDS011;19554;42.652;23.364;2023-01-28T01:34:52;10.85;;;8.30;;
33190;SDS011;19554;42.652;23.364;2023-01-28T01:37:18;12.00;;;8.23;;
33190;SDS011;19554;42.652;23.364;2023-01-28T01:39:43;11.10;;;7.85;;
33190;SDS011;19554;42.652;23.364;2023-01-28T01:42:10;11.02;;;8.88;;
33190;SDS011;19554;42.652;23.364;2023-01-28T01:47:34;12.02;;;8.82;;
33190;SDS011;19554;42.652;23.364;2023-01-28T01:50:28;11.73;;;8.20;;
33190;SDS011;19554;42.652;23.364;2023-01-28T01:53:06;12.75;;;8.68;;
33190;SDS011;19554;42.652;23.364;2023-01-28T01:55:38;12.98;;;8.90;;
33190;SDS011;19554;42.652;23.364;2023-01-28T01:58:07;11.23;;;8.50;;
33190;SDS011;19554;42.652;23.364;2023-01-28T02:00:36;11.43;;;8.13;;
33190;SDS011;19554;42.652;23.364;2023-01-28T02:03:02;11.65;;;8.68;;
33190;SDS011;19554;42.652;23.364;2023-01-28T02:05:28;12.77;;;8.95;;
33190;SDS011;19554;42.652;23.364;2023-01-28T02:07:54;10.40;;;8.15;;
33190;SDS011;19554;42.652;23.364;2023-01-28T02:10:41;10.82;;;8.23;;
33190;SDS011;19554;42.652;23.364;2023-01-28T02:13:07;10.35;;;7.97;;
33190;SDS011;19554;42.652;23.364;2023-01-28T02:15:33;12.13;;;9.02;;
33190;SDS011;19554;42.652;23.364;2023-01-28T02:17:58;10.55;;;7.75;;
33190;SDS011;19554;42.652;23.364;2023-01-28T02:28:52;10.07;;;7.57;;
33190;SDS011;19554;42.652;23.364;2023-01-28T02:31:26;11.40;;;7.90;;
33190;SDS011;19554;42.652;23.364;2023-01-28T02:34:05;11.40;;;8.20;;
33190;SDS011;19554;42.652;23.364;2023-01-28T02:36:59;12.90;;;8.52;;
33190;SDS011;19554;42.652;23.364;2023-01-28T02:39:33;10.20;;;7.57;;
33190;SDS011;19554;42.652;23.364;2023-01-28T02:42:22;12.13;;;8.32;;
33190;SDS011;19554;42.652;23.364;2023-01-28T02:44:52;10.98;;;7.90;;
33190;SDS011;19554;42.652;23.364;2023-01-28T02:47:17;10.25;;;7.25;;
33190;SDS011;19554;42.652;23.364;2023-01-28T02:50:05;11.93;;;8.60;;
33190;SDS011;19554;42.652;23.364;2023-01-28T02:52:53;10.60;;;7.90;;
33190;SDS011;19554;42.652;23.364;2023-01-28T02:58:55;9.35;;;7.50;;
33190;SDS011;19554;42.652;23.364;2023-01-28T03:01:52;12.32;;;8.13;;
33190;SDS011;19554;42.652;23.364;2023-01-28T03:04:46;11.65;;;8.20;;
33190;SDS011;19554;42.652;23.364;2023-01-28T03:07:19;10.07;;;7.88;;
33190;SDS011;19554;42.652;23.364;2023-01-28T03:09:47;12.57;;;9.32;;
33190;SDS011;19554;42.652;23.364;2023-01-28T03:12:17;10.30;;;7.82;;
33190;SDS011;19554;42.652;23.364;2023-01-28T03:15:09;11.95;;;8.63;;
33190;SDS011;19554;42.652;23.364;2023-01-28T03:18:12;11.05;;;8.35;;
33190;SDS011;19554;42.652;23.364;2023-01-28T03:21:07;11.68;;;8.48;;
33190;SDS011;19554;42.652;23.364;2023-01-28T03:23:56;12.10;;;9.23;;
33190;SDS011;19554;42.652;23.364;2023-01-28T03:27:09;11.82;;;8.35;;
33190;SDS011;19554;42.652;23.364;2023-01-28T03:29:57;11.02;;;8.13;;
33190;SDS011;19554;42.652;23.364;2023-01-28T03:32:44;10.15;;;7.88;;
33190;SDS011;19554;42.652;23.364;2023-01-28T03:35:29;11.77;;;8.07;;
33190;SDS011;19554;42.652;23.364;2023-01-28T03:38:16;10.30;;;7.53;;
33190;SDS011;19554;42.652;23.364;2023-01-28T03:43:22;11.45;;;8.50;;
33190;SDS011;19554;42.652;23.364;2023-01-28T03:45:48;11.25;;;7.38;;
33190;SDS011;19554;42.652;23.364;2023-01-28T03:48:16;10.60;;;7.75;;
33190;SDS011;19554;42.652;23.364;2023-01-28T03:50:46;10.73;;;8.38;;
33190;SDS011;19554;42.652;23.364;2023-01-28T03:53:12;10.85;;;7.97;;
33190;SDS011;19554;42.652;23.364;2023-01-28T03:55:39;10.32;;;7.85;;
33190;SDS011;19554;42.652;23.364;2023-01-28T03:58:08;11.43;;;8.35;;
33190;SDS011;19554;42.652;23.364;2023-01-28T04:00:34;11.00;;;8.18;;
33190;SDS011;19554;42.652;23.364;2023-01-28T04:03:09;11.35;;;8.25;;
33190;SDS011;19554;42.652;23.364;2023-01-28T04:05:44;13.07;;;9.05;;
33190;SDS011;19554;42.652;23.364;2023-01-28T04:08:21;12.73;;;9.18;;
33190;SDS011;19554;42.652;23.364;2023-01-28T04:10:47;13.40;;;8.45;;
33190;SDS011;19554;42.652;23.364;2023-01-28T04:13:13;11.50;;;8.07;;
33190;SDS011;19554;42.652;23.364;2023-01-28T04:15:38;12.13;;;8.48;;
33190;SDS011;19554;42.652;23.364;2023-01-28T04:18:04;10.27;;;7.70;;
33190;SDS011;19554;42.652;23.364;2023-01-28T04:20:29;11.65;;;8.60;;
33190;SDS011;19554;42.652;23.364;2023-01-28T04:22:55;11.32;;;8.32;;
33190;SDS011;19554;42.652;23.364;2023-01-28T04:25:21;10.77;;;8.18;;
33190;SDS011;19554;42.652;23.364;2023-01-28T04:27:46;11.82;;;7.88;;
33190;SDS011;19554;42.652;23.364;2023-01-28T04:30:12;10.60;;;8.05;;
33190;SDS011;19554;42.652;23.364;2023-01-28T04:32:37;11.15;;;7.97;;
33190;SDS011;19554;42.652;23.364;2023-01-28T04:35:02;10.20;;;8.27;;
33190;SDS011;19554;42.652;23.364;2023-01-28T04:37:28;11.38;;;7.68;;
33190;SDS011;19554;42.652;23.364;2023-01-28T04:39:53;10.77;;;8.23;;
33190;SDS011;19554;42.652;23.364;2023-01-28T04:42:19;10.80;;;7.72;;
33190;SDS011;19554;42.652;23.364;2023-01-28T04:44:44;10.18;;;7.95;;
33190;SDS011;19554;42.652;23.364;2023-01-28T04:47:09;9.73;;;7.65;;
33190;SDS011;19554;42.652;23.364;2023-01-28T04:49:35;11.70;;;8.63;;
33190;SDS011;19554;42.652;23.364;2023-01-28T04:52:00;11.90;;;8.52;;
33190;SDS011;19554;42.652;23.364;2023-01-28T04:54:25;11.32;;;7.95;;
33190;SDS011;19554;42.652;23.364;2023-01-28T04:56:51;10.32;;;7.60;;
33190;SDS011;19554;42.652;23.364;2023-01-28T04:59:16;10.95;;;8.20;;
33190;SDS011;19554;42.652;23.364;2023-01-28T05:01:42;11.57;;;8.23;;
33190;SDS011;19554;42.652;23.364;2023-01-28T05:04:07;11.65;;;7.90;;
33190;SDS011;19554;42.652;23.364;2023-01-28T05:06:33;11.45;;;8.02;;
33190;SDS011;19554;42.652;23.364;2023-01-28T05:08:59;11.48;;;8.55;;
33190;SDS011;19554;42.652;23.364;2023-01-28T05:11:24;10.45;;;7.65;;
33190;SDS011;19554;42.652;23.364;2023-01-28T05:13:50;12.18;;;8.52;;
33190;SDS011;19554;42.652;23.364;2023-01-28T05:16:16;12.68;;;8.75;;
33190;SDS011;19554;42.652;23.364;2023-01-28T05:18:42;12.02;;;8.82;;
33190;SDS011;19554;42.652;23.364;2023-01-28T05:21:07;11.13;;;8.73;;
33190;SDS011;19554;42.652;23.364;2023-01-28T05:23:33;11.90;;;9.13;;
33190;SDS011;19554;42.652;23.364;2023-01-28T05:25:58;11.68;;;8.30;;
33190;SDS011;19554;42.652;23.364;2023-01-28T05:28:24;14.48;;;9.20;;
33190;SDS011;19554;42.652;23.364;2023-01-28T05:30:49;13.38;;;8.77;;
33190;SDS011;19554;42.652;23.364;2023-01-28T05:33:14;14.35;;;9.27;;
33190;SDS011;19554;42.652;23.364;2023-01-28T05:35:41;10.63;;;8.10;;
33190;SDS011;19554;42.652;23.364;2023-01-28T05:38:07;11.77;;;7.72;;
33190;SDS011;19554;42.652;23.364;2023-01-28T05:40:32;13.20;;;9.02;;
33190;SDS011;19554;42.652;23.364;2023-01-28T05:42:57;11.65;;;8.25;;
33190;SDS011;19554;42.652;23.364;2023-01-28T05:45:23;11.80;;;8.52;;
33190;SDS011;19554;42.652;23.364;2023-01-28T05:47:48;11.75;;;8.07;;
33190;SDS011;19554;42.652;23.364;2023-01-28T05:50:14;11.82;;;8.48;;
33190;SDS011;19554;42.652;23.364;2023-01-28T05:52:39;11.43;;;8.77;;
33190;SDS011;19554;42.652;23.364;2023-01-28T05:55:05;13.00;;;8.75;;
33190;SDS011;19554;42.652;23.364;2023-01-28T05:57:31;12.40;;;8.20;;
33190;SDS011;19554;42.652;23.364;2023-01-28T05:59:57;10.27;;;8.35;;
33190;SDS011;19554;42.652;23.364;2023-01-28T06:02:22;11.07;;;8.45;;
33190;SDS011;19554;42.652;23.364;2023-01-28T06:04:47;13.88;;;9.27;;
33190;SDS011;19554;42.652;23.364;2023-01-28T06:07:13;11.95;;;8.80;;
33190;SDS011;19554;42.652;23.364;2023-01-28T06:09:39;12.45;;;8.65;;
33190;SDS011;19554;42.652;23.364;2023-01-28T06:12:05;14.18;;;9.05;;
33190;SDS011;19554;42.652;23.364;2023-01-28T06:14:30;13.63;;;9.30;;
33190;SDS011;19554;42.652;23.364;2023-01-28T06:16:56;13.02;;;9.25;;
33190;SDS011;19554;42.652;23.364;2023-01-28T06:19:21;14.00;;;8.93;;
33190;SDS011;19554;42.652;23.364;2023-01-28T06:21:46;13.02;;;9.27;;
33190;SDS011;19554;42.652;23.364;2023-01-28T06:24:12;11.43;;;8.90;;
33190;SDS011;19554;42.652;23.364;2023-01-28T06:26:38;13.10;;;8.98;;
33190;SDS011;19554;42.652;23.364;2023-01-28T06:29:03;12.15;;;9.07;;
33190;SDS011;19554;42.652;23.364;2023-01-28T06:31:29;14.43;;;8.90;;
33190;SDS011;19554;42.652;23.364;2023-01-28T06:33:54;13.43;;;9.20;;
33190;SDS011;19554;42.652;23.364;2023-01-28T06:36:20;16.48;;;10.75;;
33190;SDS011;19554;42.652;23.364;2023-01-28T06:38:45;13.77;;;8.95;;
33190;SDS011;19554;42.652;23.364;2023-01-28T06:41:11;12.73;;;8.55;;
33190;SDS011;19554;42.652;23.364;2023-01-28T06:43:36;13.32;;;9.82;;
33190;SDS011;19554;42.652;23.364;2023-01-28T06:46:01;15.48;;;10.85;;
33190;SDS011;19554;42.652;23.364;2023-01-28T06:48:27;11.77;;;8.75;;
33190;SDS011;19554;42.652;23.364;2023-01-28T06:50:53;12.63;;;9.20;;
33190;SDS011;19554;42.652;23.364;2023-01-28T06:53:18;13.23;;;9.38;;
33190;SDS011;19554;42.652;23.364;2023-01-28T06:55:44;12.80;;;9.27;;
33190;SDS011;19554;42.652;23.364;2023-01-28T06:58:10;13.88;;;9.15;;
33190;SDS011;19554;42.652;23.364;2023-01-28T07:00:35;13.55;;;9.77;;
33190;SDS011;19554;42.652;23.364;2023-01-28T07:03:01;13.93;;;10.10;;
33190;SDS011;19554;42.652;23.364;2023-01-28T07:05:27;14.02;;;10.25;;
33190;SDS011;19554;42.652;23.364;2023-01-28T07:07:53;15.90;;;10.60;;
33190;SDS011;19554;42.652;23.364;2023-01-28T07:10:18;15.30;;;10.35;;
33190;SDS011;19554;42.652;23.364;2023-01-28T07:12:44;17.35;;;12.00;;
33190;SDS011;19554;42.652;23.364;2023-01-28T07:15:09;15.27;;;11.00;;
33190;SDS011;19554;42.652;23.364;2023-01-28T07:17:38;14.80;;;10.75;;
33190;SDS011;19554;42.652;23.364;2023-01-28T07:20:05;15.03;;;10.60;;
33190;SDS011;19554;42.652;23.364;2023-01-28T07:22:31;14.25;;;10.60;;
33190;SDS011;19554;42.652;23.364;2023-01-28T07:24:56;17.00;;;11.23;;
33190;SDS011;19554;42.652;23.364;2023-01-28T07:27:23;17.42;;;11.35;;
33190;SDS011;19554;42.652;23.364;2023-01-28T07:29:48;16.02;;;10.52;;
33190;SDS011;19554;42.652;23.364;2023-01-28T07:32:13;15.07;;;10.88;;
33190;SDS011;19554;42.652;23.364;2023-01-28T07:34:39;18.45;;;12.50;;
33190;SDS011;19554;42.652;23.364;2023-01-28T07:37:07;16.70;;;11.93;;
33190;SDS011;19554;42.652;23.364;2023-01-28T07:39:32;15.02;;;10.82;;
33190;SDS011;19554;42.652;23.364;2023-01-28T07:41:58;17.05;;;10.43;;
33190;SDS011;19554;42.652;23.364;2023-01-28T07:44:24;16.23;;;11.25;;
33190;SDS011;19554;42.652;23.364;2023-01-28T07:46:49;17.40;;;12.07;;
33190;SDS011;19554;42.652;23.364;2023-01-28T07:49:14;21.15;;;13.30;;
33190;SDS011;19554;42.652;23.364;2023-01-28T07:51:40;22.77;;;13.25;;
33190;SDS011;19554;42.652;23.364;2023-01-28T07:54:05;17.83;;;11.98;;
33190;SDS011;19554;42.652;23.364;2023-01-28T07:56:31;16.77;;;11.60;;
33190;SDS011;19554;42.652;23.364;2023-01-28T07:58:56;17.33;;;11.65;;
33190;SDS011;19554;42.652;23.364;2023-01-28T08:01:21;18.00;;;12.27;;
33190;SDS011;19554;42.652;23.364;2023-01-28T08:03:47;15.85;;;10.88;;
33190;SDS011;19554;42.652;23.364;2023-01-28T08:06:12;14.45;;;10.27;;
33190;SDS011;19554;42.652;23.364;2023-01-28T08:08:38;17.20;;;10.90;;
33190;SDS011;19554;42.652;23.364;2023-01-28T08:11:07;15.57;;;11.00;;
33190;SDS011;19554;42.652;23.364;2023-01-28T08:13:33;16.98;;;11.50;;
33190;SDS011;19554;42.652;23.364;2023-01-28T08:15:59;17.33;;;11.57;;
33190;SDS011;19554;42.652;23.364;2023-01-28T08:18:25;19.83;;;13.05;;
33190;SDS011;19554;42.652;23.364;2023-01-28T08:20:53;18.80;;;11.63;;
33190;SDS011;19554;42.652;23.364;2023-01-28T08:23:22;16.90;;;12.02;;
33190;SDS011;19554;42.652;23.364;2023-01-28T08:25:50;17.48;;;11.48;;
33190;SDS011;19554;42.652;23.364;2023-01-28T08:28:16;16.60;;;10.55;;
33190;SDS011;19554;42.652;23.364;2023-01-28T08:30:42;16.20;;;9.77;;
33190;SDS011;19554;42.652;23.364;2023-01-28T08:33:08;15.20;;;10.45;;
33190;SDS011;19554;42.652;23.364;2023-01-28T08:35:35;15.40;;;9.75;;
33190;SDS011;19554;42.652;23.364;2023-01-28T08:38:01;13.88;;;9.80;;
33190;SDS011;19554;42.652;23.364;2023-01-28T08:40:28;14.88;;;9.30;;
33190;SDS011;19554;42.652;23.364;2023-01-28T08:42:54;21.73;;;11.90;;
33190;SDS011;19554;42.652;23.364;2023-01-28T08:45:20;17.17;;;10.98;;
33190;SDS011;19554;42.652;23.364;2023-01-28T08:47:53;18.67;;;10.90;;
33190;SDS011;19554;42.652;23.364;2023-01-28T08:50:20;17.25;;;11.88;;
33190;SDS011;19554;42.652;23.364;2023-01-28T08:52:47;18.02;;;12.00;;
33190;SDS011;19554;42.652;23.364;2023-01-28T08:55:13;17.48;;;11.25;;
33190;SDS011;19554;42.652;23.364;2023-01-28T08:57:40;17.48;;;11.32;;
33190;SDS011;19554;42.652;23.364;2023-01-28T09:00:06;15.02;;;10.52;;
33190;SDS011;19554;42.652;23.364;2023-01-28T09:02:34;12.95;;;9.80;;
33190;SDS011;19554;42.652;23.364;2023-01-28T09:05:00;13.43;;;10.27;;
33190;SDS011;19554;42.652;23.364;2023-01-28T09:07:26;12.85;;;8.88;;
33190;SDS011;19554;42.652;23.364;2023-01-28T09:09:51;14.57;;;9.25;;
33190;SDS011;19554;42.652;23.364;2023-01-28T09:12:17;14.00;;;9.88;;
33190;SDS011;19554;42.652;23.364;2023-01-28T09:14:42;13.98;;;10.50;;
33190;SDS011;19554;42.652;23.364;2023-01-28T09:17:07;17.35;;;11.40;;
33190;SDS011;19554;42.652;23.364;2023-01-28T09:19:33;18.08;;;10.65;;
33190;SDS011;19554;42.652;23.364;2023-01-28T09:21:58;16.38;;;9.77;;
33190;SDS011;19554;42.652;23.364;2023-01-28T09:24:24;14.93;;;9.70;;
33190;SDS011;19554;42.652;23.364;2023-01-28T09:26:49;17.40;;;10.93;;
33190;SDS011;19554;42.652;23.364;2023-01-28T09:29:15;18.20;;;10.80;;
33190;SDS011;19554;42.652;23.364;2023-01-28T09:31:41;18.58;;;11.20;;
33190;SDS011;19554;42.652;23.364;2023-01-28T09:34:07;16.05;;;11.07;;
33190;SDS011;19554;42.652;23.364;2023-01-28T09:36:33;15.93;;;10.95;;
33190;SDS011;19554;42.652;23.364;2023-01-28T09:38:59;18.98;;;11.50;;
33190;SDS011;19554;42.652;23.364;2023-01-28T09:41:26;16.92;;;11.50;;
33190;SDS011;19554;42.652;23.364;2023-01-28T09:44:02;20.38;;;11.90;;
33190;SDS011;19554;42.652;23.364;2023-01-28T09:46:51;19.75;;;12.52;;
33190;SDS011;19554;42.652;23.364;2023-01-28T09:49:23;18.58;;;11.45;;
33190;SDS011;19554;42.652;23.364;2023-01-28T09:52:11;17.42;;;11.07;;
33190;SDS011;19554;42.652;23.364;2023-01-28T09:54:49;17.55;;;11.23;;
33190;SDS011;19554;42.652;23.364;2023-01-28T09:57:23;16.15;;;10.90;;
33190;SDS011;19554;42.652;23.364;2023-01-28T09:59:50;15.50;;;10.88;;
33190;SDS011;19554;42.652;23.364;2023-01-28T10:05:19;16.88;;;11.13;;
33190;SDS011;19554;42.652;23.364;2023-01-28T10:08:17;16.27;;;10.75;;
33190;SDS011;19554;42.652;23.364;2023-01-28T10:10:49;17.08;;;11.10;;
33190;SDS011;19554;42.652;23.364;2023-01-28T10:22:01;17.30;;;11.52;;
33190;SDS011;19554;42.652;23.364;2023-01-28T10:24:35;18.70;;;12.55;;
33190;SDS011;19554;42.652;23.364;2023-01-28T10:27:13;18.67;;;12.18;;
33190;SDS011;19554;42.652;23.364;2023-01-28T10:29:52;19.48;;;12.30;;
33190;SDS011;19554;42.652;23.364;2023-01-28T10:32:31;18.67;;;12.25;;
33190;SDS011;19554;42.652;23.364;2023-01-28T10:34:59;19.73;;;12.27;;
33190;SDS011;19554;42.652;23.364;2023-01-28T10:37:26;17.13;;;11.40;;
33190;SDS011;19554;42.652;23.364;2023-01-28T10:39:55;17.70;;;11.55;;
33190;SDS011;19554;42.652;23.364;2023-01-28T10:44:55;19.45;;;12.75;;
33190;SDS011;19554;42.652;23.364;2023-01-28T10:47:36;23.35;;;11.48;;
33190;SDS011;19554;42.652;23.364;2023-01-28T10:50:05;17.98;;;11.00;;
33190;SDS011;19554;42.652;23.364;2023-01-28T10:52:49;19.13;;;12.95;;
33190;SDS011;19554;42.652;23.364;2023-01-28T10:55:16;17.45;;;11.60;;
33190;SDS011;19554;42.652;23.364;2023-01-28T10:57:42;15.63;;;10.68;;
33190;SDS011;19554;42.652;23.364;2023-01-28T11:00:09;16.55;;;11.35;;
33190;SDS011;19554;42.652;23.364;2023-01-28T11:02:36;16.60;;;11.18;;
33190;SDS011;19554;42.652;23.364;2023-01-28T11:05:03;18.02;;;11.15;;
33190;SDS011;19554;42.652;23.364;2023-01-28T11:07:31;16.30;;;10.57;;
33190;SDS011;19554;42.652;23.364;2023-01-28T11:09:56;14.23;;;10.05;;
33190;SDS011;19554;42.652;23.364;2023-01-28T11:12:26;15.48;;;10.38;;
33190;SDS011;19554;42.652;23.364;2023-01-28T11:14:54;16.80;;;11.27;;
33190;SDS011;19554;42.652;23.364;2023-01-28T11:17:22;14.15;;;10.05;;
33190;SDS011;19554;42.652;23.364;2023-01-28T11:19:53;16.42;;;10.88;;
33190;SDS011;19554;42.652;23.364;2023-01-28T11:25:05;19.42;;;13.15;;
33190;SDS011;19554;42.652;23.364;2023-01-28T11:27:56;14.88;;;10.93;;
33190;SDS011;19554;42.652;23.364;2023-01-28T11:30:23;16.83;;;11.50;;
33190;SDS011;19554;42.652;23.364;2023-01-28T11:32:56;16.67;;;10.88;;
33190;SDS011;19554;42.652;23.364;2023-01-28T11:35:28;15.35;;;11.57;;
33190;SDS011;19554;42.652;23.364;2023-01-28T11:37:58;19.88;;;12.25;;
33190;SDS011;19554;42.652;23.364;2023-01-28T11:40:24;15.80;;;11.52;;
33190;SDS011;19554;42.652;23.364;2023-01-28T11:42:52;15.55;;;10.88;;
33190;SDS011;19554;42.652;23.364;2023-01-28T11:45:42;16.52;;;11.93;;
33190;SDS011;19554;42.652;23.364;2023-01-28T11:50:57;22.33;;;14.40;;
33190;SDS011;19554;42.652;23.364;2023-01-28T11:56:22;16.48;;;11.13;;
33190;SDS011;19554;42.652;23.364;2023-01-28T12:02:19;16.42;;;11.63;;
33190;SDS011;19554;42.652;23.364;2023-01-28T12:07:53;15.52;;;10.90;;
33190;SDS011;19554;42.652;23.364;2023-01-28T12:10:40;17.08;;;12.02;;
33190;SDS011;19554;42.652;23.364;2023-01-28T12:24:07;16.95;;;11.00;;
33190;SDS011;19554;42.652;23.364;2023-01-28T12:34:55;13.90;;;9.73;;
33190;SDS011;19554;42.652;23.364;2023-01-28T12:37:59;14.88;;;10.30;;
33190;SDS011;19554;42.652;23.364;2023-01-28T12:48:31;17.33;;;11.50;;
33190;SDS011;19554;42.652;23.364;2023-01-28T12:51:03;19.85;;;11.15;;
33190;SDS011;19554;42.652;23.364;2023-01-28T12:53:45;23.83;;;12.63;;
33190;SDS011;19554;42.652;23.364;2023-01-28T12:56:20;19.55;;;11.70;;
33190;SDS011;19554;42.652;23.364;2023-01-28T12:58:56;16.92;;;11.45;;
33190;SDS011;19554;42.652;23.364;2023-01-28T13:01:28;17.90;;;11.55;;
33190;SDS011;19554;42.652;23.364;2023-01-28T13:04:00;22.02;;;14.13;;
33190;SDS011;19554;42.652;23.364;2023-01-28T13:06:32;17.40;;;11.63;;
33190;SDS011;19554;42.652;23.364;2023-01-28T13:09:20;17.35;;;11.73;;
33190;SDS011;19554;42.652;23.364;2023-01-28T13:11:49;18.45;;;12.00;;
33190;SDS011;19554;42.652;23.364;2023-01-28T13:14:17;19.23;;;12.45;;
33190;SDS011;19554;42.652;23.364;2023-01-28T13:16:52;19.58;;;11.98;;
33190;SDS011;19554;42.652;23.364;2023-01-28T13:21:43;18.55;;;11.07;;
33190;SDS011;19554;42.652;23.364;2023-01-28T13:31:40;22.95;;;14.43;;
33190;SDS011;19554;42.652;23.364;2023-01-28T13:34:43;22.15;;;13.68;;
33190;SDS011;19554;42.652;23.364;2023-01-28T13:39:38;16.25;;;10.93;;
33190;SDS011;19554;42.652;23.364;2023-01-28T13:44:51;26.92;;;15.02;;
33190;SDS011;19554;42.652;23.364;2023-01-28T13:50:03;21.70;;;13.70;;
33190;SDS011;19554;42.652;23.364;2023-01-28T13:52:32;19.70;;;13.73;;
33190;SDS011;19554;42.652;23.364;2023-01-28T14:00:33;18.90;;;13.25;;
33190;SDS011;19554;42.652;23.364;2023-01-28T14:06:39;19.52;;;12.25;;
33190;SDS011;19554;42.652;23.364;2023-01-28T14:09:20;17.02;;;11.55;;
33190;SDS011;19554;42.652;23.364;2023-01-28T14:17:24;18.42;;;12.77;;
33190;SDS011;19554;42.652;23.364;2023-01-28T14:19:54;21.73;;;13.63;;
33190;SDS011;19554;42.652;23.364;2023-01-28T14:22:21;19.42;;;12.93;;
33190;SDS011;19554;42.652;23.364;2023-01-28T14:24:47;20.45;;;13.13;;
33190;SDS011;19554;42.652;23.364;2023-01-28T14:27:15;19.60;;;12.30;;
33190;SDS011;19554;42.652;23.364;2023-01-28T14:32:32;18.05;;;11.93;;
33190;SDS011;19554;42.652;23.364;2023-01-28T14:34:58;17.98;;;10.93;;
33190;SDS011;19554;42.652;23.364;2023-01-28T14:37:29;19.52;;;13.23;;
33190;SDS011;19554;42.652;23.364;2023-01-28T14:39:57;20.70;;;12.68;;
33190;SDS011;19554;42.652;23.364;2023-01-28T14:42:26;20.77;;;13.27;;
33190;SDS011;19554;42.652;23.364;2023-01-28T14:45:24;22.23;;;14.77;;
33190;SDS011;19554;42.652;23.364;2023-01-28T14:53:28;22.20;;;14.50;;
33190;SDS011;19554;42.652;23.364;2023-01-28T14:58:51;21.52;;;13.68;;
33190;SDS011;19554;42.652;23.364;2023-01-28T15:01:22;21.20;;;13.30;;
33190;SDS011;19554;42.652;23.364;2023-01-28T15:03:50;22.02;;;14.10;;
33190;SDS011;19554;42.652;23.364;2023-01-28T15:06:17;21.55;;;14.57;;
33190;SDS011;19554;42.652;23.364;2023-01-28T15:08:45;19.50;;;13.45;;
33190;SDS011;19554;42.652;23.364;2023-01-28T15:11:15;17.45;;;12.38;;
33190;SDS011;19554;42.652;23.364;2023-01-28T15:13:45;19.88;;;12.25;;
33190;SDS011;19554;42.652;23.364;2023-01-28T15:16:15;19.27;;;12.13;;
33190;SDS011;19554;42.652;23.364;2023-01-28T15:18:55;16.48;;;10.50;;
33190;SDS011;19554;42.652;23.364;2023-01-28T15:21:24;12.77;;;9.95;;
33190;SDS011;19554;42.652;23.364;2023-01-28T15:23:51;15.75;;;10.90;;
33190;SDS011;19554;42.652;23.364;2023-01-28T15:26:20;13.90;;;10.03;;
33190;SDS011;19554;42.652;23.364;2023-01-28T15:28:46;18.20;;;10.73;;
33190;SDS011;19554;42.652;23.364;2023-01-28T15:31:21;18.75;;;10.57;;
33190;SDS011;19554;42.652;23.364;2023-01-28T15:33:58;17.83;;;11.40;;
33190;SDS011;19554;42.652;23.364;2023-01-28T15:36:24;18.13;;;11.27;;
33190;SDS011;19554;42.652;23.364;2023-01-28T15:38:51;15.98;;;10.65;;
33190;SDS011;19554;42.652;23.364;2023-01-28T15:41:17;18.60;;;12.07;;
33190;SDS011;19554;42.652;23.364;2023-01-28T15:43:47;17.90;;;10.85;;
33190;SDS011;19554;42.652;23.364;2023-01-28T15:46:14;16.42;;;11.70;;
33190;SDS011;19554;42.652;23.364;2023-01-28T15:48:41;18.00;;;12.65;;
33190;SDS011;19554;42.652;23.364;2023-01-28T15:51:22;19.42;;;13.38;;
33190;SDS011;19554;42.652;23.364;2023-01-28T15:54:23;15.00;;;10.02;;
33190;SDS011;19554;42.652;23.364;2023-01-28T15:56:42;15.07;;;10.50;;
33190;SDS011;19554;42.652;23.364;2023-01-28T15:59:16;19.63;;;12.68;;
33190;SDS011;19554;42.652;23.364;2023-01-28T16:01:43;14.88;;;10.10;;
33190;SDS011;19554;42.652;23.364;2023-01-28T16:04:21;15.63;;;9.85;;
33190;SDS011;19554;42.652;23.364;2023-01-28T16:06:49;14.07;;;10.13;;
33190;SDS011;19554;42.652;23.364;2023-01-28T16:09:22;13.43;;;9.48;;
33190;SDS011;19554;42.652;23.364;2023-01-28T16:11:48;17.17;;;9.88;;
33190;SDS011;19554;42.652;23.364;2023-01-28T16:14:21;16.10;;;10.98;;
33190;SDS011;19554;42.652;23.364;2023-01-28T16:16:53;17.60;;;10.75;;
33190;SDS011;19554;42.652;23.364;2023-01-28T16:21:57;16.50;;;10.70;;
33190;SDS011;19554;42.652;23.364;2023-01-28T16:24:25;14.63;;;10.38;;
33190;SDS011;19554;42.652;23.364;2023-01-28T16:29:22;17.15;;;10.75;;
33190;SDS011;19554;42.652;23.364;2023-01-28T16:31:47;17.77;;;11.25;;
33190;SDS011;19554;42.652;23.364;2023-01-28T16:34:13;14.57;;;10.40;;